Time;durP1;ratioP1;P1;durP2;ratioP2;P2;SDS_P1;SDS_P2;PMS_P1;PMS_P2;Temp;Humidity;BMP_temperature;BMP_pressure;BME280_temperature;BME280_humidity;BME280_pressure;Samples;Min_cycle;Max_cycle;Signal;HPM_P1;HPM_P2
2022/08/29 00:00:42;;;;;;;0.10;0.10;;;;;;;;;;6225594;22;20027;-88
2022/08/29 00:03:08;;;;;;;0.20;0.20;;;;;;;;;;6225919;22;20012;-88
2022/08/29 00:05:35;;;;;;;0.10;0.10;;;;;;;;;;6225339;22;20038;-88
2022/08/29 00:08:01;;;;;;;0.13;0.13;;;;;;;;;;6225646;22;20027;-88
2022/08/29 00:10:28;;;;;;;0.10;0.10;;;;;;;;;;6225407;22;20539;-88
2022/08/29 00:12:54;;;;;;;0.10;0.10;;;;;;;;;;6225874;22;20016;-88
2022/08/29 00:15:20;;;;;;;0.13;0.13;;;;;;;;;;6225649;22;20103;-88
2022/08/29 00:17:46;;;;;;;0.17;0.17;;;;;;;;;;6225187;22;20023;-88
2022/08/29 00:20:14;;;;;;;0.10;0.10;;;;;;;;;;6225957;22;20095;-88
2022/08/29 00:22:40;;;;;;;0.10;0.10;;;;;;;;;;6225228;22;20018;-88
2022/08/29 00:25:07;;;;;;;0.17;0.17;;;;;;;;;;6225644;22;20011;-88
2022/08/29 00:27:33;;;;;;;0.10;0.10;;;;;;;;;;6225444;22;20012;-88
2022/08/29 00:29:59;;;;;;;0.10;0.10;;;;;;;;;;6225852;22;20445;-88
2022/08/29 00:32:33;;;;;;;0.10;0.10;;;;;;;;;;6250910;22;20397;-88
2022/08/29 00:34:59;;;;;;;0.03;0.03;;;;;;;;;;6225838;22;20016;-88
2022/08/29 00:37:25;;;;;;;0.08;0.08;;;;;;;;;;6225263;22;20063;-88
2022/08/29 00:39:51;;;;;;;0.10;0.10;;;;;;;;;;6225584;22;20398;-88
2022/08/29 00:42:17;;;;;;;0.10;0.10;;;;;;;;;;6225947;22;20147;-88
2022/08/29 00:44:44;;;;;;;0.10;0.10;;;;;;;;;;6225580;22;20141;-88
2022/08/29 00:47:13;;;;;;;0.10;0.10;;;;;;;;;;6225149;22;20019;-88
2022/08/29 00:49:41;;;;;;;0.03;0.03;;;;;;;;;;6225442;22;20016;-88
2022/08/29 00:52:13;;;;;;;0.00;0.00;;;;;;;;;;6225534;22;20023;-88
2022/08/29 00:54:41;;;;;;;0.10;0.10;;;;;;;;;;6251027;22;20026;-88
2022/08/29 00:57:07;;;;;;;0.10;0.10;;;;;;;;;;6250125;22;20090;-88
2022/08/29 00:59:36;;;;;;;0.00;0.00;;;;;;;;;;6225155;22;20015;-88
2022/08/29 01:02:03;;;;;;;0.10;0.10;;;;;;;;;;6225257;22;20027;-88
2022/08/29 01:04:29;;;;;;;0.10;0.10;;;;;;;;;;6225341;22;20403;-88
2022/08/29 01:06:56;;;;;;;0.08;0.08;;;;;;;;;;6224769;22;20034;-88
2022/08/29 01:09:23;;;;;;;0.00;0.00;;;;;;;;;;6225376;22;20022;-88
2022/08/29 01:14:35;;;;;;;0.00;0.00;;;;;;;;;;6250590;22;20020;-88
2022/08/29 01:17:02;;;;;;;0.00;0.00;;;;;;;;;;6224771;22;20023;-88
2022/08/29 01:19:46;;;;;;;0.10;0.10;;;;;;;;;;6225046;22;20057;-88
2022/08/29 01:22:22;;;;;;;0.10;0.10;;;;;;;;;;6225331;22;20026;-88
2022/08/29 01:24:50;;;;;;;0.00;0.00;;;;;;;;;;6225466;22;20091;-88
2022/08/29 01:27:21;;;;;;;0.10;0.10;;;;;;;;;;6224775;22;20015;-88
2022/08/29 01:29:48;;;;;;;0.20;0.20;;;;;;;;;;6225248;22;20012;-88
2022/08/29 01:32:14;;;;;;;0.20;0.20;;;;;;;;;;6250219;22;20016;-88
2022/08/29 01:34:41;;;;;;;0.10;0.10;;;;;;;;;;6225083;22;20019;-88
2022/08/29 01:37:08;;;;;;;0.10;0.10;;;;;;;;;;6224564;22;20020;-88
2022/08/29 01:39:35;;;;;;;0.00;0.00;;;;;;;;;;6224937;22;20020;-88
2022/08/29 01:42:04;;;;;;;0.10;0.10;;;;;;;;;;6250353;22;20054;-88
2022/08/29 01:44:30;;;;;;;0.10;0.10;;;;;;;;;;6225116;22;20023;-88
2022/08/29 01:46:58;;;;;;;0.00;0.00;;;;;;;;;;6224342;22;20128;-87
2022/08/29 01:49:24;;;;;;;0.10;0.10;;;;;;;;;;6225141;22;20034;-88
2022/08/29 01:51:50;;;;;;;0.10;0.10;;;;;;;;;;6224667;22;20015;-88
2022/08/29 01:54:17;;;;;;;0.10;0.10;;;;;;;;;;6224724;22;20026;-88
2022/08/29 01:56:45;;;;;;;0.15;0.15;;;;;;;;;;6224274;22;20015;-88
2022/08/29 01:59:13;;;;;;;0.10;0.10;;;;;;;;;;6250237;22;20500;-88
2022/08/29 02:01:41;;;;;;;0.00;0.00;;;;;;;;;;6224954;22;20341;-88
2022/08/29 02:04:07;;;;;;;0.10;0.10;;;;;;;;;;6224933;22;20012;-88
2022/08/29 02:06:34;;;;;;;0.20;0.20;;;;;;;;;;6249960;22;20018;-88
2022/08/29 02:09:00;;;;;;;0.10;0.10;;;;;;;;;;6224994;22;20441;-88
2022/08/29 02:11:26;;;;;;;0.10;0.10;;;;;;;;;;6224919;22;20058;-88
2022/08/29 02:13:55;;;;;;;0.10;0.10;;;;;;;;;;6224619;22;20357;-88
2022/08/29 02:16:22;;;;;;;0.10;0.10;;;;;;;;;;6224449;22;20031;-88
2022/08/29 02:18:48;;;;;;;0.10;0.10;;;;;;;;;;6224615;22;20019;-88
2022/08/29 02:21:16;;;;;;;0.17;0.17;;;;;;;;;;6250215;22;20022;-88
2022/08/29 02:23:42;;;;;;;0.13;0.13;;;;;;;;;;6225287;22;20023;-89
2022/08/29 02:26:08;;;;;;;0.15;0.15;;;;;;;;;;6224770;22;20023;-89
2022/08/29 02:28:35;;;;;;;0.10;0.10;;;;;;;;;;6225340;22;20015;-89
2022/08/29 02:31:01;;;;;;;0.10;0.10;;;;;;;;;;6224924;22;20118;-89
2022/08/29 02:33:28;;;;;;;0.10;0.10;;;;;;;;;;6225080;22;20019;-88
2022/08/29 02:35:54;;;;;;;0.10;0.10;;;;;;;;;;6224218;22;20062;-88
2022/08/29 02:38:20;;;;;;;0.10;0.10;;;;;;;;;;6224827;22;20095;-88
2022/08/29 02:40:47;;;;;;;0.10;0.10;;;;;;;;;;6224606;22;20016;-88
2022/08/29 02:43:15;;;;;;;0.10;0.10;;;;;;;;;;6224739;22;20012;-88
2022/08/29 02:45:42;;;;;;;0.10;0.10;;;;;;;;;;6225513;22;20349;-88
2022/08/29 02:48:10;;;;;;;0.15;0.15;;;;;;;;;;6227019;22;20104;-89
2022/08/29 02:50:39;;;;;;;0.10;0.10;;;;;;;;;;6226637;22;20461;-88
2022/08/29 02:53:05;;;;;;;0.10;0.10;;;;;;;;;;6226652;22;20047;-88
2022/08/29 02:55:31;;;;;;;0.10;0.10;;;;;;;;;;6225997;22;20397;-88
2022/08/29 02:57:57;;;;;;;0.10;0.10;;;;;;;;;;6226577;22;20055;-88
2022/08/29 03:00:24;;;;;;;0.15;0.15;;;;;;;;;;6226251;22;20344;-88
2022/08/29 03:02:51;;;;;;;0.10;0.10;;;;;;;;;;6226900;22;20039;-88
2022/08/29 03:05:18;;;;;;;0.10;0.10;;;;;;;;;;6226577;22;20346;-88
2022/08/29 03:07:44;;;;;;;0.15;0.15;;;;;;;;;;6226142;22;20016;-88
2022/08/29 03:10:10;;;;;;;0.10;0.10;;;;;;;;;;6225902;22;20100;-87
2022/08/29 03:12:37;;;;;;;0.20;0.20;;;;;;;;;;6226271;22;20019;-88
2022/08/29 03:15:04;;;;;;;0.08;0.08;;;;;;;;;;6226354;22;20020;-88
2022/08/29 03:17:30;;;;;;;0.10;0.10;;;;;;;;;;6251716;22;20337;-88
2022/08/29 03:19:57;;;;;;;0.30;0.30;;;;;;;;;;6226178;22;20042;-88
2022/08/29 03:22:23;;;;;;;0.10;0.10;;;;;;;;;;6226278;22;20016;-88
2022/08/29 03:24:49;;;;;;;0.10;0.10;;;;;;;;;;6226420;22;20047;-88
2022/08/29 03:27:15;;;;;;;0.15;0.15;;;;;;;;;;6225758;22;20023;-88
2022/08/29 03:29:41;;;;;;;0.10;0.10;;;;;;;;;;6226147;22;20015;-88
2022/08/29 03:32:07;;;;;;;0.10;0.10;;;;;;;;;;6226100;22;20020;-87
2022/08/29 03:34:33;;;;;;;0.10;0.10;;;;;;;;;;6226269;22;20015;-87
2022/08/29 03:37:00;;;;;;;0.10;0.10;;;;;;;;;;6225074;22;20027;-88
2022/08/29 03:39:26;;;;;;;0.10;0.10;;;;;;;;;;6225947;22;20016;-87
2022/08/29 03:41:52;;;;;;;0.10;0.10;;;;;;;;;;6225715;22;20012;-88
2022/08/29 03:44:18;;;;;;;0.10;0.10;;;;;;;;;;6226004;22;20438;-87
2022/08/29 03:46:46;;;;;;;0.10;0.10;;;;;;;;;;6250841;22;20018;-88
2022/08/29 03:49:14;;;;;;;0.10;0.10;;;;;;;;;;6225894;22;20061;-88
2022/08/29 03:51:40;;;;;;;0.10;0.10;;;;;;;;;;6225869;22;20019;-88
2022/08/29 03:54:06;;;;;;;0.20;0.20;;;;;;;;;;6225974;22;20058;-88
2022/08/29 03:56:32;;;;;;;0.10;0.10;;;;;;;;;;6225451;22;20019;-88
2022/08/29 03:58:58;;;;;;;0.20;0.20;;;;;;;;;;6226079;22;20020;-88
2022/08/29 04:01:27;;;;;;;0.10;0.10;;;;;;;;;;6225659;22;20024;-88
2022/08/29 04:03:54;;;;;;;0.10;0.10;;;;;;;;;;6223429;22;20019;-88
2022/08/29 04:06:21;;;;;;;0.10;0.10;;;;;;;;;;6224646;22;20012;-88
2022/08/29 04:08:47;;;;;;;0.03;0.03;;;;;;;;;;6225185;22;20016;-88
2022/08/29 04:11:14;;;;;;;0.10;0.10;;;;;;;;;;6224933;22;20438;-88
2022/08/29 04:13:40;;;;;;;0.10;0.10;;;;;;;;;;6224656;22;20112;-88
2022/08/29 04:16:13;;;;;;;0.10;0.10;;;;;;;;;;6249905;22;20435;-87
2022/08/29 04:18:39;;;;;;;0.10;0.10;;;;;;;;;;6224854;22;20396;-88
2022/08/29 04:21:06;;;;;;;0.10;0.10;;;;;;;;;;6224633;22;20154;-88
2022/08/29 04:23:32;;;;;;;0.20;0.20;;;;;;;;;;6224635;22;20022;-88
2022/08/29 04:25:58;;;;;;;0.10;0.10;;;;;;;;;;6224292;22;20692;-87
2022/08/29 04:28:25;;;;;;;0.13;0.13;;;;;;;;;;6224865;22;20015;-88
2022/08/29 04:30:51;;;;;;;0.10;0.10;;;;;;;;;;6225092;22;20051;-87
2022/08/29 04:33:18;;;;;;;0.20;0.20;;;;;;;;;;6224858;22;20015;-88
2022/08/29 04:35:44;;;;;;;0.20;0.20;;;;;;;;;;6249512;22;20061;-87
2022/08/29 04:38:10;;;;;;;0.10;0.10;;;;;;;;;;6224420;22;20165;-88
2022/08/29 04:40:41;;;;;;;0.10;0.10;;;;;;;;;;6224590;22;20051;-87
2022/08/29 04:43:07;;;;;;;0.10;0.10;;;;;;;;;;6224815;22;20015;-87
2022/08/29 04:45:34;;;;;;;0.05;0.05;;;;;;;;;;6223865;22;20015;-87
2022/08/29 04:48:01;;;;;;;0.10;0.10;;;;;;;;;;6224509;22;20047;-87
2022/08/29 04:50:27;;;;;;;0.10;0.10;;;;;;;;;;6224127;22;20011;-88
2022/08/29 04:52:53;;;;;;;0.03;0.03;;;;;;;;;;6224550;22;20016;-87
2022/08/29 04:55:21;;;;;;;0.10;0.10;;;;;;;;;;6224421;22;20022;-88
2022/08/29 04:57:47;;;;;;;0.10;0.10;;;;;;;;;;6224079;22;20441;-87
2022/08/29 05:00:15;;;;;;;0.05;0.05;;;;;;;;;;6249478;22;20015;-88
2022/08/29 05:02:42;;;;;;;0.10;0.10;;;;;;;;;;6224735;22;20030;-88
2022/08/29 05:05:09;;;;;;;0.10;0.10;;;;;;;;;;6224070;22;20345;-88
2022/08/29 05:07:35;;;;;;;0.20;0.20;;;;;;;;;;6223257;22;20011;-88
2022/08/29 05:10:05;;;;;;;0.17;0.17;;;;;;;;;;6249951;22;20419;-88
2022/08/29 05:12:32;;;;;;;0.10;0.10;;;;;;;;;;6224365;22;20023;-88
2022/08/29 05:14:58;;;;;;;0.10;0.10;;;;;;;;;;6224215;22;20019;-88
2022/08/29 05:17:25;;;;;;;0.10;0.10;;;;;;;;;;6224063;22;20051;-88
2022/08/29 05:19:51;;;;;;;0.10;0.10;;;;;;;;;;6224350;22;20020;-88
2022/08/29 05:22:18;;;;;;;0.10;0.10;;;;;;;;;;6223879;22;20020;-87
2022/08/29 05:24:45;;;;;;;0.10;0.10;;;;;;;;;;6249817;22;20016;-88
2022/08/29 05:27:13;;;;;;;0.10;0.10;;;;;;;;;;6223521;22;20011;-88
2022/08/29 05:29:43;;;;;;;0.00;0.00;;;;;;;;;;6224722;22;20016;-88
2022/08/29 05:32:10;;;;;;;0.10;0.10;;;;;;;;;;6224789;22;20388;-88
2022/08/29 05:34:37;;;;;;;0.20;0.20;;;;;;;;;;6224352;22;20020;-88
2022/08/29 05:37:04;;;;;;;0.10;0.10;;;;;;;;;;6223784;22;20505;-88
2022/08/29 05:39:31;;;;;;;0.10;0.10;;;;;;;;;;6223972;22;20019;-88
2022/08/29 05:41:58;;;;;;;0.10;0.10;;;;;;;;;;6249822;22;20154;-88
2022/08/29 05:44:25;;;;;;;0.10;0.10;;;;;;;;;;6223928;22;20015;-88
2022/08/29 05:46:51;;;;;;;0.10;0.10;;;;;;;;;;6223814;22;20031;-88
2022/08/29 05:49:17;;;;;;;0.20;0.20;;;;;;;;;;6224672;22;20069;-88
2022/08/29 05:51:43;;;;;;;0.10;0.10;;;;;;;;;;6224789;22;20361;-88
2022/08/29 05:54:09;;;;;;;0.10;0.10;;;;;;;;;;6225217;22;20026;-88
2022/08/29 05:56:35;;;;;;;0.10;0.10;;;;;;;;;;6223398;22;20106;-87
2022/08/29 05:59:01;;;;;;;0.10;0.10;;;;;;;;;;6224342;22;20023;-88
2022/08/29 06:01:29;;;;;;;0.20;0.20;;;;;;;;;;6224031;22;20020;-88
2022/08/29 06:03:57;;;;;;;0.00;0.00;;;;;;;;;;6224482;22;20020;-88
2022/08/29 06:06:24;;;;;;;0.10;0.10;;;;;;;;;;6223393;22;20350;-87
2022/08/29 06:08:51;;;;;;;0.10;0.10;;;;;;;;;;6224020;22;20030;-88
2022/08/29 06:11:24;;;;;;;0.05;0.05;;;;;;;;;;6223372;22;20012;-88
2022/08/29 06:13:50;;;;;;;0.20;0.20;;;;;;;;;;6248119;22;20022;-88
2022/08/29 06:16:18;;;;;;;0.00;0.00;;;;;;;;;;6222356;22;20097;-87
2022/08/29 06:18:45;;;;;;;0.10;0.10;;;;;;;;;;6223214;22;20101;-88
2022/08/29 06:21:11;;;;;;;0.00;0.00;;;;;;;;;;6223611;22;20015;-88
2022/08/29 06:23:38;;;;;;;0.10;0.10;;;;;;;;;;6223784;22;20081;-88
2022/08/29 06:26:05;;;;;;;0.03;0.03;;;;;;;;;;6248404;22;20160;-88
2022/08/29 06:28:31;;;;;;;0.10;0.10;;;;;;;;;;6223388;22;20011;-88
2022/08/29 06:31:04;;;;;;;0.10;0.10;;;;;;;;;;6223052;22;20023;-88
2022/08/29 06:33:30;;;;;;;0.10;0.10;;;;;;;;;;6223701;22;20426;-88
2022/08/29 06:35:56;;;;;;;0.10;0.10;;;;;;;;;;6222742;22;20101;-88
2022/08/29 06:38:22;;;;;;;0.10;0.10;;;;;;;;;;6223317;22;20027;-87
2022/08/29 06:40:48;;;;;;;0.10;0.10;;;;;;;;;;6223415;22;20047;-88
2022/08/29 06:43:14;;;;;;;0.20;0.20;;;;;;;;;;6223219;22;20018;-87
2022/08/29 06:45:43;;;;;;;0.10;0.10;;;;;;;;;;6222762;22;20019;-88
2022/08/29 06:48:09;;;;;;;0.08;0.08;;;;;;;;;;6223398;22;20087;-88
2022/08/29 06:50:36;;;;;;;0.00;0.00;;;;;;;;;;6223208;22;20019;-88
2022/08/29 06:53:02;;;;;;;0.10;0.10;;;;;;;;;;6223416;22;20019;-88
2022/08/29 06:55:28;;;;;;;0.10;0.10;;;;;;;;;;6222933;22;20026;-89
2022/08/29 06:57:54;;;;;;;0.10;0.10;;;;;;;;;;6223456;22;20016;-89
2022/08/29 07:00:22;;;;;;;0.10;0.10;;;;;;;;;;6223331;22;20087;-88
2022/08/29 07:02:48;;;;;;;0.10;0.10;;;;;;;;;;6223300;22;20442;-88
2022/08/29 07:05:14;;;;;;;0.10;0.10;;;;;;;;;;6223145;22;20015;-90
2022/08/29 07:07:51;;;;;;;0.20;0.20;;;;;;;;;;6223403;22;20042;-88
2022/08/29 07:10:20;;;;;;;0.10;0.10;;;;;;;;;;6175342;22;1117348;-89
2022/08/29 07:12:46;;;;;;;0.20;0.20;;;;;;;;;;6225486;22;20024;-89
2022/08/29 07:15:12;;;;;;;0.10;0.10;;;;;;;;;;6225611;22;20069;-89
2022/08/29 07:17:39;;;;;;;0.10;0.10;;;;;;;;;;6225104;22;20018;-88
2022/08/29 07:20:06;;;;;;;0.00;0.00;;;;;;;;;;6226026;22;20038;-90
2022/08/29 07:22:33;;;;;;;0.05;0.05;;;;;;;;;;6225403;22;20020;-89
2022/08/29 07:24:59;;;;;;;0.08;0.08;;;;;;;;;;6225500;22;20015;-88
2022/08/29 07:27:25;;;;;;;0.03;0.03;;;;;;;;;;6224609;22;20016;-89
2022/08/29 07:29:51;;;;;;;0.10;0.10;;;;;;;;;;6250939;22;20072;-89
2022/08/29 07:32:17;;;;;;;0.10;0.10;;;;;;;;;;6224986;22;20051;-89
2022/08/29 07:34:43;;;;;;;0.10;0.10;;;;;;;;;;6225047;22;20353;-88
2022/08/29 07:37:09;;;;;;;0.10;0.10;;;;;;;;;;6224535;22;20019;-89
2022/08/29 07:39:36;;;;;;;0.10;0.10;;;;;;;;;;6225199;22;20022;-88
2022/08/29 07:42:02;;;;;;;0.10;0.10;;;;;;;;;;6224737;22;20023;-89
2022/08/29 07:44:28;;;;;;;0.00;0.00;;;;;;;;;;6225267;22;20011;-89
2022/08/29 07:46:55;;;;;;;0.00;0.00;;;;;;;;;;6224375;22;20026;-90
2022/08/29 07:49:21;;;;;;;0.00;0.00;;;;;;;;;;6224802;22;20023;-91
2022/08/29 07:51:47;;;;;;;0.10;0.10;;;;;;;;;;6227366;22;20019;-90
2022/08/29 07:54:15;;;;;;;0.10;0.10;;;;;;;;;;6251051;22;20019;-91
2022/08/29 07:56:42;;;;;;;0.10;0.10;;;;;;;;;;6225672;22;20020;-90
2022/08/29 07:59:08;;;;;;;0.00;0.00;;;;;;;;;;6225890;22;20016;-89
2022/08/29 08:01:35;;;;;;;0.10;0.10;;;;;;;;;;6225787;22;20020;-92
2022/08/29 08:04:02;;;;;;;0.20;0.20;;;;;;;;;;6226517;22;20024;-92
2022/08/29 08:06:28;;;;;;;0.10;0.10;;;;;;;;;;6225151;22;20042;-92
2022/08/29 08:08:55;;;;;;;0.00;0.00;;;;;;;;;;6226067;22;20034;-91
2022/08/29 08:11:22;;;;;;;0.10;0.10;;;;;;;;;;6225649;22;20022;-91
2022/08/29 08:13:48;;;;;;;0.00;0.00;;;;;;;;;;6226084;22;20026;-91
2022/08/29 08:16:15;;;;;;;0.10;0.10;;;;;;;;;;6224936;22;20015;-91
2022/08/29 08:18:43;;;;;;;0.15;0.15;;;;;;;;;;6250728;22;20026;-93
2022/08/29 08:21:10;;;;;;;0.00;0.00;;;;;;;;;;6225412;22;20019;-90
2022/08/29 08:23:36;;;;;;;0.10;0.10;;;;;;;;;;6225634;22;20020;-90
2022/08/29 08:26:03;;;;;;;0.10;0.10;;;;;;;;;;6225229;22;20018;-92
2022/08/29 08:28:29;;;;;;;0.10;0.10;;;;;;;;;;6225173;22;20027;-91
2022/08/29 08:30:56;;;;;;;0.10;0.10;;;;;;;;;;6225559;22;20038;-91
2022/08/29 08:33:22;;;;;;;0.10;0.10;;;;;;;;;;6225893;22;20020;-92
2022/08/29 08:35:48;;;;;;;0.10;0.10;;;;;;;;;;6224791;22;20066;-92
2022/08/29 08:38:15;;;;;;;0.10;0.10;;;;;;;;;;6225683;22;20026;-93
2022/08/29 08:40:45;;;;;;;0.00;0.00;;;;;;;;;;6225288;22;20130;-93
2022/08/29 08:43:14;;;;;;;0.10;0.10;;;;;;;;;;6225053;22;20015;-91
2022/08/29 08:45:41;;;;;;;0.10;0.10;;;;;;;;;;6225221;22;20055;-91
2022/08/29 08:48:15;;;;;;;0.10;0.10;;;;;;;;;;6225098;22;20038;-91
2022/08/29 08:50:48;;;;;;;0.03;0.03;;;;;;;;;;6225139;22;20055;-91
2022/08/29 08:53:31;;;;;;;0.10;0.10;;;;;;;;;;6225428;22;20015;-90
2022/08/29 08:56:00;;;;;;;0.00;0.00;;;;;;;;;;6224983;22;20035;-91
2022/08/29 08:58:32;;;;;;;0.10;0.10;;;;;;;;;;6225198;22;20011;-91
2022/08/29 09:01:01;;;;;;;0.20;0.20;;;;;;;;;;6225377;22;20022;-92
2022/08/29 09:03:48;;;;;;;0.10;0.10;;;;;;;;;;6225541;22;20066;-91
2022/08/29 09:06:33;;;;;;;0.10;0.10;;;;;;;;;;6224950;22;20018;-92
2022/08/29 09:09:11;;;;;;;0.08;0.08;;;;;;;;;;6224988;22;20022;-92
2022/08/29 09:11:40;;;;;;;0.10;0.10;;;;;;;;;;6225790;22;20463;-91
2022/08/29 09:14:25;;;;;;;0.10;0.10;;;;;;;;;;6225545;22;20026;-93
2022/08/29 09:16:54;;;;;;;0.10;0.10;;;;;;;;;;6224923;22;20023;-92
2022/08/29 09:19:20;;;;;;;0.10;0.10;;;;;;;;;;6225337;22;20016;-92
2022/08/29 09:21:48;;;;;;;0.10;0.10;;;;;;;;;;6224826;22;20019;-92
2022/08/29 09:24:27;;;;;;;0.10;0.10;;;;;;;;;;6224929;22;20016;-92
2022/08/29 09:26:55;;;;;;;0.10;0.10;;;;;;;;;;6224345;22;20011;-91
2022/08/29 09:29:22;;;;;;;0.10;0.10;;;;;;;;;;6224505;22;20015;-91
2022/08/29 09:32:03;;;;;;;0.10;0.10;;;;;;;;;;6224450;22;20051;-91
2022/08/29 09:34:39;;;;;;;0.10;0.10;;;;;;;;;;6224595;22;20022;-92
2022/08/29 09:37:22;;;;;;;0.10;0.10;;;;;;;;;;6225305;22;20102;-92
2022/08/29 09:40:09;;;;;;;0.05;0.05;;;;;;;;;;6224943;22;20020;-91
2022/08/29 09:42:39;;;;;;;0.10;0.10;;;;;;;;;;6225083;22;20433;-91
2022/08/29 09:45:15;;;;;;;0.10;0.10;;;;;;;;;;6224635;22;20015;-91
2022/08/29 09:47:41;;;;;;;0.10;0.10;;;;;;;;;;6225031;22;20055;-93
2022/08/29 09:50:11;;;;;;;0.10;0.10;;;;;;;;;;6225230;22;20027;-93
2022/08/29 09:52:50;;;;;;;0.10;0.10;;;;;;;;;;6225127;22;20517;-91
2022/08/29 09:55:22;;;;;;;0.08;0.08;;;;;;;;;;6224657;22;20015;-90
2022/08/29 09:57:53;;;;;;;0.10;0.10;;;;;;;;;;6224872;22;20350;-92
2022/08/29 10:00:24;;;;;;;0.03;0.03;;;;;;;;;;6225273;22;20026;-91
2022/08/29 10:02:59;;;;;;;0.00;0.00;;;;;;;;;;6225352;22;20020;-92
2022/08/29 10:05:28;;;;;;;0.00;0.00;;;;;;;;;;6224443;22;20037;-90
2022/08/29 10:07:54;;;;;;;0.03;0.03;;;;;;;;;;6224919;22;20016;-90
2022/08/29 10:10:21;;;;;;;0.10;0.10;;;;;;;;;;6224436;22;20057;-92
2022/08/29 10:13:07;;;;;;;0.00;0.00;;;;;;;;;;6225209;22;20020;-91
2022/08/29 10:15:44;;;;;;;0.00;0.00;;;;;;;;;;6224440;22;20027;-92
2022/08/29 10:18:19;;;;;;;0.10;0.10;;;;;;;;;;6225118;22;20019;-91
2022/08/29 10:20:48;;;;;;;0.10;0.10;;;;;;;;;;6224510;22;20118;-90
2022/08/29 10:23:28;;;;;;;0.03;0.03;;;;;;;;;;6225085;22;20012;-92
2022/08/29 10:25:57;;;;;;;0.10;0.10;;;;;;;;;;6224584;22;20011;-92
2022/08/29 10:28:31;;;;;;;0.10;0.10;;;;;;;;;;6224623;22;20142;-92
2022/08/29 10:31:01;;;;;;;0.00;0.00;;;;;;;;;;6224952;22;20154;-91
2022/08/29 10:33:38;;;;;;;0.00;0.00;;;;;;;;;;6224889;22;20026;-91
2022/08/29 10:36:13;;;;;;;0.05;0.05;;;;;;;;;;6224097;22;20118;-92
2022/08/29 10:39:00;;;;;;;0.10;0.10;;;;;;;;;;6224351;22;20488;-91
2022/08/29 10:41:31;;;;;;;0.10;0.10;;;;;;;;;;6224585;22;20020;-92
2022/08/29 10:43:57;;;;;;;0.00;0.00;;;;;;;;;;6224428;22;20460;-93
2022/08/29 10:46:46;;;;;;;0.08;0.08;;;;;;;;;;6224370;22;20050;-92
2022/08/29 10:49:28;;;;;;;0.10;0.10;;;;;;;;;;6224195;22;20047;-92
2022/08/29 10:51:57;;;;;;;0.00;0.00;;;;;;;;;;6224735;22;20012;-93
2022/08/29 10:54:29;;;;;;;0.10;0.10;;;;;;;;;;6224580;22;20023;-91
2022/08/29 10:56:55;;;;;;;0.10;0.10;;;;;;;;;;6224102;22;20062;-91
2022/08/29 10:59:45;;;;;;;0.08;0.08;;;;;;;;;;6224165;22;20023;-92
2022/08/29 11:02:21;;;;;;;0.10;0.10;;;;;;;;;;6205221;22;20077;-92
2022/08/29 11:04:50;;;;;;;0.10;0.10;;;;;;;;;;6250147;22;20011;-92
2022/08/29 11:07:27;;;;;;;0.00;0.00;;;;;;;;;;6225189;22;20012;-92
2022/08/29 11:10:05;;;;;;;0.00;0.00;;;;;;;;;;6226723;22;20081;-91
2022/08/29 11:12:50;;;;;;;0.00;0.00;;;;;;;;;;6226731;22;20023;-92
2022/08/29 11:15:23;;;;;;;0.10;0.10;;;;;;;;;;6226609;22;20073;-91
2022/08/29 11:17:57;;;;;;;0.10;0.10;;;;;;;;;;6226560;22;20069;-93
2022/08/29 11:20:28;;;;;;;0.00;0.00;;;;;;;;;;6226124;22;20102;-93
2022/08/29 11:22:57;;;;;;;0.05;0.05;;;;;;;;;;6226272;22;20464;-93
2022/08/29 11:25:23;;;;;;;0.00;0.00;;;;;;;;;;6225717;22;20341;-92
2022/08/29 11:27:58;;;;;;;0.00;0.00;;;;;;;;;;6223633;22;20016;-94
2022/08/29 11:30:48;;;;;;;0.03;0.03;;;;;;;;;;6226536;22;20065;-92
2022/08/29 11:33:39;;;;;;;0.00;0.00;;;;;;;;;;6226044;22;20441;-93
2022/08/29 11:36:14;;;;;;;0.00;0.00;;;;;;;;;;6225209;22;20442;-93
2022/08/29 11:38:43;;;;;;;0.10;0.10;;;;;;;;;;6226341;22;20015;-92
2022/08/29 11:41:13;;;;;;;0.05;0.05;;;;;;;;;;6226218;22;20073;-93
2022/08/29 11:44:06;;;;;;;0.00;0.00;;;;;;;;;;6226426;22;20319;-93
2022/08/29 11:46:42;;;;;;;0.00;0.00;;;;;;;;;;6225929;22;20057;-91
2022/08/29 11:49:36;;;;;;;0.00;0.00;;;;;;;;;;6226064;22;20431;-92
2022/08/29 11:52:11;;;;;;;0.00;0.00;;;;;;;;;;6226010;22;20019;-94
2022/08/29 11:54:38;;;;;;;0.00;0.00;;;;;;;;;;6226080;22;20022;-92
2022/08/29 11:57:06;;;;;;;0.00;0.00;;;;;;;;;;6225435;22;20020;-91
2022/08/29 11:59:50;;;;;;;0.00;0.00;;;;;;;;;;6225857;22;20064;-94
2022/08/29 12:02:31;;;;;;;0.00;0.00;;;;;;;;;;6226020;22;20020;-92
2022/08/29 12:05:03;;;;;;;0.00;0.00;;;;;;;;;;6225734;22;20019;-95
2022/08/29 12:07:37;;;;;;;0.03;0.03;;;24.10;71.30;;;;;;6225860;22;20011;-94
2022/08/29 12:10:09;;;;;;;0.10;0.10;;;23.40;99.90;;;;;;6225677;22;20018;-92
2022/08/29 12:12:41;;;;;;;0.10;0.10;;;22.70;99.90;;;;;;6226434;22;20077;-95
2022/08/29 12:15:28;;;;;;;0.00;0.00;;;22.90;99.90;;;;;;6225621;22;20019;-95
2022/08/29 12:18:41;;;;;;;0.10;0.10;;;22.90;99.90;;;;;;6226475;22;20020;-93
2022/08/29 12:21:33;;;;;;;0.00;0.00;;;22.80;99.90;;;;;;6225701;22;20096;-92
2022/08/29 12:24:31;;;;;;;0.10;0.10;;;23.00;99.90;;;;;;6226078;22;20027;-93
2022/08/29 12:26:57;;;;;;;0.10;0.10;;;22.90;99.90;;;;;;6224899;22;20047;-94
2022/08/29 12:29:41;;;;;;;0.00;0.00;;;22.70;99.90;;;;;;6226019;22;20016;-95
2022/08/29 12:32:31;;;;;;;0.10;0.10;;;22.30;99.90;;;;;;6226288;22;20023;-92
2022/08/29 12:35:27;;;;;;;0.10;0.10;;;22.20;99.90;;;;;;6225526;22;20045;-91
2022/08/29 12:38:07;;;;;;;0.00;0.00;;;22.00;99.90;;;;;;6225081;22;20020;-92
2022/08/29 12:41:03;;;;;;;0.00;0.00;;;21.80;99.90;;;;;;6225240;22;20073;-92
2022/08/29 12:43:41;;;;;;;0.10;0.10;;;21.90;99.90;;;;;;6225709;22;20016;-91
2022/08/29 12:46:34;;;;;;;0.00;0.00;;;21.70;99.90;;;;;;6224836;22;20007;-90
2022/08/29 12:49:15;;;;;;;0.05;0.05;;;21.70;99.90;;;;;;6250939;22;20026;-93
2022/08/29 12:51:42;;;;;;;0.00;0.00;;;21.80;99.90;;;;;;6226004;22;20011;-91
2022/08/29 12:54:10;;;;;;;0.10;0.10;;;21.80;99.90;;;;;;6225897;22;20063;-94
2022/08/29 12:56:49;;;;;;;0.00;0.00;;;21.70;99.90;;;;;;6224942;22;20023;-92
2022/08/29 12:59:42;;;;;;;0.00;0.00;;;21.70;99.90;;;;;;6225410;22;20098;-91
2022/08/29 13:02:27;;;;;;;0.00;0.00;;;21.60;99.90;;;;;;6225632;22;20012;-92
2022/08/29 13:04:53;;;;;;;0.00;0.00;;;21.70;99.90;;;;;;6225138;22;20019;-90
2022/08/29 13:07:19;;;;;;;0.00;0.00;;;21.80;99.90;;;;;;6224369;22;20092;-94
2022/08/29 13:09:52;;;;;;;0.10;0.10;;;21.90;99.90;;;;;;6225391;22;20011;-94
2022/08/29 13:12:31;;;;;;;0.00;0.00;;;21.90;99.90;;;;;;6224620;22;20717;-95
2022/08/29 13:18:38;;;;;;;0.10;0.10;;;22.10;99.90;;;;;;6287079;22;20389;-96
2022/08/29 13:21:12;;;;;;;0.05;0.05;;;22.00;99.90;;;;;;6224558;22;20016;-95
2022/08/29 13:23:46;;;;;;;0.00;0.00;;;22.00;99.90;;;;;;6251310;22;20019;-95
2022/08/29 13:26:14;;;;;;;0.00;0.00;;;22.00;99.90;;;;;;6224473;22;20023;-94
2022/08/29 13:28:56;;;;;;;0.00;0.00;;;22.00;99.90;;;;;;6224849;22;20114;-93
2022/08/29 13:31:34;;;;;;;0.05;0.05;;;22.10;99.90;;;;;;6225259;22;20109;-96
2022/08/29 13:34:16;;;;;;;0.10;0.10;;;22.10;99.90;;;;;;6225173;22;20015;-93
2022/08/29 13:37:09;;;;;;;0.10;0.10;;;22.00;99.90;;;;;;6225715;22;20066;-93
2022/08/29 13:39:39;;;;;;;0.10;0.10;;;22.10;99.90;;;;;;6225409;22;20062;-93
2022/08/29 13:42:11;;;;;;;0.10;0.10;;;22.20;99.90;;;;;;6224908;22;20512;-96
2022/08/29 13:44:46;;;;;;;0.08;0.08;;;22.20;99.90;;;;;;6225171;22;20103;-93
2022/08/29 13:47:23;;;;;;;0.10;0.10;;;22.10;99.90;;;;;;6224493;22;20026;-94
2022/08/29 13:49:50;;;;;;;0.10;0.10;;;21.80;99.90;;;;;;6250239;22;20007;-94
2022/08/29 13:52:29;;;;;;;0.10;0.10;;;21.90;99.90;;;;;;6249775;22;20020;-93
2022/08/29 13:54:55;;;;;;;0.10;0.10;;;22.10;99.90;;;;;;6224784;22;20022;-92
2022/08/29 13:57:23;;;;;;;0.10;0.10;;;22.20;99.90;;;;;;6224259;22;20019;-93
2022/08/29 13:59:50;;;;;;;0.00;0.00;;;22.20;99.90;;;;;;6224683;22;20629;-95
2022/08/29 14:02:16;;;;;;;0.10;0.10;;;22.40;99.90;;;;;;6225178;22;20020;-94
2022/08/29 14:04:46;;;;;;;0.10;0.10;;;22.40;99.90;;;;;;6224595;22;20015;-93
2022/08/29 14:07:21;;;;;;;0.00;0.00;;;22.40;99.90;;;;;;6223638;22;20020;-92
2022/08/29 14:09:48;;;;;;;0.00;0.00;;;22.10;99.90;;;;;;6224868;22;20016;-94
2022/08/29 14:12:14;;;;;;;0.10;0.10;;;22.10;99.90;;;;;;6224847;22;20049;-93
2022/08/29 14:14:41;;;;;;;0.00;0.00;;;22.20;99.90;;;;;;6224718;22;20149;-94
2022/08/29 14:17:10;;;;;;;0.10;0.10;;;22.30;99.90;;;;;;6225079;22;20327;-93
2022/08/29 14:19:36;;;;;;;0.00;0.00;;;22.30;99.90;;;;;;6230677;22;20024;-95
2022/08/29 14:22:02;;;;;;;0.10;0.10;;;22.10;99.90;;;;;;6226754;22;20122;-95
2022/08/29 14:24:29;;;;;;;0.10;0.10;;;22.20;99.90;;;;;;6226238;22;20099;-96
2022/08/29 14:26:56;;;;;;;0.10;0.10;;;22.30;99.90;;;;;;6233042;22;20041;-95
2022/08/29 14:29:22;;;;;;;0.10;0.10;;;22.40;99.90;;;;;;6225943;22;20015;-96
2022/08/29 14:31:57;;;;;;;0.00;0.00;;;22.30;99.90;;;;;;6225083;22;20023;-95
2022/08/29 14:34:22;;;;;;;0.00;0.00;;;22.50;99.90;;;;;;6224767;22;20019;-96
2022/08/29 14:36:48;;;;;;;0.00;0.00;;;22.90;99.90;;;;;;6223848;22;20349;-96
2022/08/29 14:39:14;;;;;;;0.10;0.10;;;23.30;99.90;;;;;;6230303;22;20027;-96
2022/08/29 14:41:41;;;;;;;0.00;0.00;;;23.50;99.90;;;;;;6229514;22;20091;-95
2022/08/29 14:44:07;;;;;;;0.10;0.10;;;23.40;99.90;;;;;;6229421;22;20019;-96